createdAt,value
2022-10-07T00:00:43.198Z,101267.09
2022-10-07T00:03:09.845Z,101274.38
2022-10-07T00:05:36.624Z,101265.47
2022-10-07T00:08:03.296Z,101274.75
2022-10-07T00:10:29.861Z,101270.16
2022-10-07T00:12:57.197Z,101265.97
2022-10-07T00:15:23.821Z,101268.94
2022-10-07T00:17:50.402Z,101263.06
2022-10-07T00:20:16.998Z,101256.94
2022-10-07T00:22:43.727Z,101258.97
2022-10-07T00:25:10.356Z,101256.47
2022-10-07T00:27:37.325Z,101254.19
2022-10-07T00:30:04.659Z,101250.38
2022-10-07T00:32:31.215Z,101249.59
2022-10-07T00:34:57.809Z,101254.75
2022-10-07T00:37:24.288Z,101246.72
2022-10-07T00:39:50.786Z,101245.72
2022-10-07T00:42:17.972Z,101247.75
2022-10-07T00:44:45.611Z,101249.47
2022-10-07T00:47:25.670Z,101236.28
2022-10-07T00:50:05.940Z,101238.00
2022-10-07T00:52:36.442Z,101234.47
2022-10-07T00:55:10.335Z,101230.56
2022-10-07T00:57:37.580Z,101232.47
2022-10-07T01:00:06.560Z,101220.06
2022-10-07T01:02:33.534Z,101225.50
2022-10-07T01:05:01.997Z,101224.66
2022-10-07T01:07:28.783Z,101218.16
2022-10-07T01:09:56.377Z,101221.97
2022-10-07T01:12:48.718Z,101210.53
2022-10-07T01:15:19.278Z,101205.81
2022-10-07T01:17:53.515Z,101211.41
2022-10-07T01:20:57.938Z,101207.09
2022-10-07T01:23:53.185Z,101202.63
2022-10-07T01:26:36.218Z,101207.09
2022-10-07T01:29:08.690Z,101196.78
2022-10-07T01:31:39.451Z,101202.34
2022-10-07T01:34:07.610Z,101189.16
2022-10-07T01:36:36.981Z,101187.63
2022-10-07T01:39:09.125Z,101185.19
2022-10-07T01:41:37.676Z,101184.34
2022-10-07T01:44:04.551Z,101176.59
2022-10-07T01:46:33.195Z,101168.47
2022-10-07T01:49:00.141Z,101163.34
2022-10-07T01:51:29.685Z,101167.16
2022-10-07T01:54:04.296Z,101166.19
2022-10-07T01:56:58.104Z,101160.56
2022-10-07T01:59:43.680Z,101161.75
2022-10-07T02:02:28.767Z,101155.22
2022-10-07T02:05:31.098Z,101145.72
2022-10-07T02:08:08.969Z,101141.72
2022-10-07T02:11:04.707Z,101139.13
2022-10-07T02:13:38.500Z,101141.00
2022-10-07T02:16:33.957Z,101137.22
2022-10-07T02:19:03.657Z,101133.88
2022-10-07T02:21:31.854Z,101120.44
2022-10-07T02:23:58.882Z,101117.66
2022-10-07T02:26:27.265Z,101121.09
2022-10-07T02:28:54.622Z,101127.69
2022-10-07T02:31:25.723Z,101128.53
2022-10-07T02:33:54.130Z,101124.53
2022-10-07T02:36:26.396Z,101119.19
2022-10-07T02:38:53.311Z,101116.84
2022-10-07T02:41:33.860Z,101114.63
2022-10-07T02:44:18.759Z,101112.63
2022-10-07T02:46:48.943Z,101118.84
2022-10-07T02:49:18.194Z,101120.56
2022-10-07T02:51:52.822Z,101112.63
2022-10-07T02:54:23.160Z,101104.91
2022-10-07T02:56:50.215Z,101103.28
2022-10-07T02:59:17.330Z,101108.06
2022-10-07T03:01:47.827Z,101103.94
2022-10-07T03:04:14.460Z,101098.72
2022-10-07T03:06:42.817Z,101097.38
2022-10-07T03:09:09.580Z,101092.03
2022-10-07T03:11:38.319Z,101089.25
2022-10-07T03:14:05.524Z,101094.94
2022-10-07T03:16:32.438Z,101087.78
2022-10-07T03:18:58.972Z,101090.97
2022-10-07T03:21:25.733Z,101084.13
2022-10-07T03:23:53.059Z,101082.63
2022-10-07T03:26:20.027Z,101082.81
2022-10-07T03:28:47.083Z,101089.19
2022-10-07T03:31:15.421Z,101081.56
2022-10-07T03:33:42.348Z,101083.47
2022-10-07T03:36:09.302Z,101077.19
2022-10-07T03:38:35.990Z,101075.38
2022-10-07T03:41:04.367Z,101069.66
2022-10-07T03:43:31.557Z,101066.78
2022-10-07T03:45:58.546Z,101062.41
2022-10-07T03:48:25.050Z,101060.88
2022-10-07T03:50:52.392Z,101058.97
2022-10-07T03:53:19.830Z,101048.47
2022-10-07T03:55:46.280Z,101044.00
2022-10-07T03:58:12.732Z,101045.03
2022-10-07T04:00:40.296Z,101052.19
2022-10-07T04:03:07.717Z,101038.38
2022-10-07T04:05:35.712Z,101038.38
2022-10-07T04:08:04.760Z,101035.88
2022-10-07T04:10:31.648Z,101039.19
2022-10-07T04:12:58.198Z,101032.03
2022-10-07T04:15:24.813Z,101029.28
2022-10-07T04:17:56.111Z,101035.78
2022-10-07T04:20:22.585Z,101029.22
2022-10-07T04:22:49.114Z,101023.31
2022-10-07T04:25:33.897Z,101015.56
2022-10-07T04:28:16.471Z,101019.19
2022-10-07T04:30:44.119Z,101016.44
2022-10-07T04:33:11.800Z,101025.50
2022-10-07T04:35:39.268Z,101014.06
2022-10-07T04:38:09.348Z,101012.25
2022-10-07T04:40:39.904Z,101012.25
2022-10-07T04:43:26.707Z,101005.09
2022-10-07T04:45:55.521Z,101006.13
2022-10-07T04:48:23.320Z,101003.38
2022-10-07T04:50:51.902Z,101004.13
2022-10-07T04:53:19.759Z,101013.38
2022-10-07T04:55:48.246Z,101001.84
2022-10-07T04:58:15.848Z,101005.94
2022-10-07T05:00:47.736Z,101001.84
2022-10-07T05:03:15.432Z,101006.50
2022-10-07T05:05:43.680Z,100993.66
2022-10-07T05:08:10.578Z,100999.75
2022-10-07T05:10:40.808Z,100994.56
2022-10-07T05:13:12.110Z,101000.22
2022-10-07T05:15:47.793Z,100985.25
2022-10-07T05:18:14.453Z,100983.13
2022-10-07T05:20:43.321Z,100986.22
2022-10-07T05:23:09.801Z,100982.47
2022-10-07T05:25:36.224Z,100976.75
2022-10-07T05:28:02.732Z,100977.09
2022-10-07T05:30:29.414Z,100969.19
2022-10-07T05:32:55.864Z,100971.00
2022-10-07T05:35:22.420Z,100967.25
2022-10-07T05:37:53.661Z,100964.59
2022-10-07T05:40:21.211Z,100967.84
2022-10-07T05:42:47.689Z,100967.34
2022-10-07T05:45:14.149Z,100955.31
2022-10-07T05:47:40.771Z,100952.84
2022-10-07T05:50:08.029Z,100943.66
2022-10-07T05:52:35.634Z,100945.38
2022-10-07T05:55:02.170Z,100939.88
2022-10-07T05:57:28.704Z,100927.69
2022-10-07T05:59:56.509Z,100933.94
2022-10-07T06:02:23.099Z,100935.34
2022-10-07T06:04:49.622Z,100935.09
2022-10-07T06:07:20.513Z,100939.63
2022-10-07T06:10:06.580Z,100951.22
2022-10-07T06:12:51.762Z,100969.63
2022-10-07T06:15:18.432Z,100981.84
2022-10-07T06:17:45.515Z,100987.06
2022-10-07T06:20:15.057Z,100991.56
2022-10-07T06:22:42.906Z,100993.78
2022-10-07T06:25:09.616Z,100992.50
2022-10-07T06:27:36.082Z,100995.69
2022-10-07T06:30:03.266Z,101004.00
2022-10-07T06:32:30.854Z,101008.41
2022-10-07T06:34:57.388Z,101014.44
2022-10-07T06:37:23.858Z,101014.69
2022-10-07T06:39:50.459Z,101000.50
2022-10-07T06:42:17.417Z,101003.78
2022-10-07T06:44:43.939Z,100997.38
2022-10-07T06:47:11.890Z,101004.94
2022-10-07T06:49:38.961Z,101009.59
2022-10-07T06:52:05.468Z,100998.88
2022-10-07T06:54:31.978Z,100999.66
2022-10-07T06:56:58.387Z,101002.59
2022-10-07T06:59:24.920Z,100995.50
2022-10-07T07:01:51.365Z,100998.44
2022-10-07T07:04:17.783Z,101000.56
2022-10-07T07:06:44.806Z,100986.81
2022-10-07T07:09:11.264Z,100983.97
2022-10-07T07:11:38.162Z,100992.06
2022-10-07T07:14:05.764Z,100989.66
2022-10-07T07:16:32.633Z,100986.91
2022-10-07T07:19:05.147Z,100980.72
2022-10-07T07:21:33.568Z,100989.56
2022-10-07T07:24:00.494Z,100984.56
2022-10-07T07:26:28.250Z,100981.97
2022-10-07T07:29:00.196Z,100979.38
2022-10-07T07:31:28.987Z,100972.31
2022-10-07T07:34:01.697Z,100968.09
2022-10-07T07:36:29.909Z,100964.66
2022-10-07T07:38:59.435Z,100960.28
2022-10-07T07:41:29.412Z,100963.06
2022-10-07T07:43:58.326Z,100967.25
2022-10-07T07:46:28.094Z,100968.72
2022-10-07T07:48:55.253Z,100967.00
2022-10-07T07:51:22.731Z,100957.97
2022-10-07T07:53:50.002Z,100962.59
2022-10-07T07:56:17.518Z,100960.38
2022-10-07T07:58:44.032Z,100959.81
2022-10-07T08:01:15.859Z,100955.47
2022-10-07T08:03:43.644Z,100952.44
2022-10-07T08:06:11.878Z,100951.72
2022-10-07T08:08:38.416Z,100942.91
2022-10-07T08:11:16.042Z,100944.41
2022-10-07T08:13:42.710Z,100938.41
2022-10-07T08:16:13.071Z,100944.69
2022-10-07T08:18:44.403Z,100944.66
2022-10-07T08:21:10.881Z,100939.94
2022-10-07T08:23:38.428Z,100936.63
2022-10-07T08:26:05.121Z,100936.09
2022-10-07T08:28:32.389Z,100934.38
2022-10-07T08:31:07.355Z,100930.69
2022-10-07T08:33:36.370Z,100926.88
2022-10-07T08:36:04.327Z,100922.53
2022-10-07T08:38:36.001Z,100920.28
2022-10-07T08:41:08.575Z,100917.16
2022-10-07T08:43:37.512Z,100913.63
2022-10-07T08:46:04.924Z,100910.09
2022-10-07T08:48:34.227Z,100911.03
2022-10-07T08:51:13.534Z,100904.41
2022-10-07T08:53:40.238Z,100897.13
2022-10-07T08:56:18.065Z,100905.47
2022-10-07T08:58:55.210Z,100897.78
2022-10-07T09:01:29.234Z,100904.78
2022-10-07T09:04:15.255Z,100894.78
2022-10-07T09:06:54.486Z,100889.94
2022-10-07T09:09:34.367Z,100892.34
2022-10-07T09:12:02.212Z,100891.81
2022-10-07T09:14:31.599Z,100890.44
2022-10-07T09:17:02.166Z,100886.06
2022-10-07T09:19:33.064Z,100895.97
2022-10-07T09:22:06.019Z,100883.84
2022-10-07T09:24:34.438Z,100880.28
2022-10-07T09:27:04.956Z,100875.72
2022-10-07T09:29:31.694Z,100876.00
2022-10-07T09:31:58.508Z,100868.47
2022-10-07T09:34:29.791Z,100869.31
2022-10-07T09:37:11.582Z,100859.72
2022-10-07T09:39:38.637Z,100859.75
2022-10-07T09:42:08.645Z,100844.78
2022-10-07T09:44:36.103Z,100852.31
2022-10-07T09:47:19.992Z,100855.25
2022-10-07T09:49:49.892Z,100843.34
2022-10-07T09:52:23.350Z,100848.44
2022-10-07T09:54:52.998Z,100846.66
2022-10-07T09:57:25.526Z,100838.19
2022-10-07T09:59:52.408Z,100840.34
2022-10-07T10:02:25.152Z,100831.34
2022-10-07T10:04:54.153Z,100822.84
2022-10-07T10:07:25.101Z,100830.53
2022-10-07T10:09:53.626Z,100830.63
2022-10-07T10:12:21.214Z,100821.06
2022-10-07T10:14:55.672Z,100819.16
2022-10-07T10:17:36.820Z,100805.44
2022-10-07T10:20:27.133Z,100801.00
2022-10-07T10:22:53.736Z,100799.31
2022-10-07T10:25:46.535Z,100791.56
2022-10-07T10:28:21.994Z,100795.00
2022-10-07T10:30:55.550Z,100796.84
2022-10-07T10:33:38.820Z,100792.91
2022-10-07T10:36:14.459Z,100779.84
2022-10-07T10:38:53.618Z,100778.59
2022-10-07T10:41:53.432Z,100777.59
2022-10-07T10:44:20.351Z,100781.38
2022-10-07T10:46:56.377Z,100770.28
2022-10-07T10:49:54.244Z,100759.25
2022-10-07T10:52:51.325Z,100757.41
2022-10-07T10:55:26.918Z,100743.22
2022-10-07T10:58:12.238Z,100741.22
2022-10-07T11:01:11.286Z,100740.31
2022-10-07T11:04:16.495Z,100740.13
2022-10-07T11:06:47.196Z,100736.56
2022-10-07T11:09:22.588Z,100735.16
2022-10-07T11:11:50.570Z,100724.59
2022-10-07T11:14:20.121Z,100717.47
2022-10-07T11:16:51.393Z,100714.53
2022-10-07T11:19:24.179Z,100711.25
2022-10-07T11:21:52.424Z,100708.63
2022-10-07T11:24:50.888Z,100694.25
2022-10-07T11:27:23.004Z,100690.63
2022-10-07T11:30:06.553Z,100691.63
2022-10-07T11:32:55.774Z,100682.75
2022-10-07T11:35:28.545Z,100678.38
2022-10-07T11:38:06.053Z,100676.06
2022-10-07T11:40:34.653Z,100673.06
2022-10-07T11:43:19.044Z,100670.81
2022-10-07T11:45:52.295Z,100660.28
2022-10-07T11:48:25.383Z,100655.22
2022-10-07T11:50:55.113Z,100654.44
2022-10-07T11:53:27.605Z,100654.78
2022-10-07T11:56:04.552Z,100646.16
2022-10-07T11:58:36.093Z,100642.28
2022-10-07T12:01:28.945Z,100637.63
2022-10-07T12:04:00.200Z,100625.97
2022-10-07T12:06:27.027Z,100627.34
2022-10-07T12:08:54.480Z,100621.84
2022-10-07T12:11:24.622Z,100613.75
2022-10-07T12:13:53.016Z,100603.72
2022-10-07T12:16:30.011Z,100610.81
2022-10-07T12:19:12.722Z,100598.84
2022-10-07T12:22:02.745Z,100602.22
2022-10-07T12:24:31.294Z,100591.47
2022-10-07T12:27:11.195Z,100593.00
2022-10-07T12:29:48.396Z,100592.81
2022-10-07T12:32:50.362Z,100589.22
2022-10-07T12:35:34.318Z,100594.25
2022-10-07T12:38:28.015Z,100584.13
2022-10-07T12:41:06.701Z,100585.19
2022-10-07T12:43:52.225Z,100579.38
2022-10-07T12:46:20.556Z,100579.81
2022-10-07T12:48:58.160Z,100570.84
2022-10-07T12:51:39.477Z,100570.13
2022-10-07T12:54:20.284Z,100561.44
2022-10-07T12:56:48.023Z,100561.19
2022-10-07T12:59:48.531Z,100555.41
2022-10-07T13:02:37.295Z,100550.88
2022-10-07T13:05:41.529Z,100554.09
2022-10-07T13:08:43.498Z,100548.06
2022-10-07T13:11:48.364Z,100530.78
2022-10-07T13:14:21.624Z,100538.09
2022-10-07T13:17:06.701Z,100527.41
2022-10-07T13:19:47.732Z,100530.81
2022-10-07T13:22:21.375Z,100536.06
2022-10-07T13:24:50.168Z,100535.31
2022-10-07T13:27:19.876Z,100521.03
2022-10-07T13:29:47.028Z,100523.66
2022-10-07T13:32:18.763Z,100526.34
2022-10-07T13:34:48.271Z,100528.75
2022-10-07T13:37:32.060Z,100523.78
2022-10-07T13:40:21.228Z,100514.34
2022-10-07T13:43:00.300Z,100501.84
2022-10-07T13:45:27.785Z,100497.50
2022-10-07T13:47:55.560Z,100502.75
2022-10-07T13:50:27.306Z,100497.28
2022-10-07T13:52:55.977Z,100493.09
2022-10-07T13:55:25.402Z,100493.53
2022-10-07T13:57:53.378Z,100488.44
2022-10-07T14:00:19.953Z,100481.06
2022-10-07T14:02:47.381Z,100471.13
2022-10-07T14:05:20.806Z,100465.94
2022-10-07T14:07:54.087Z,100471.13
2022-10-07T14:10:22.205Z,100467.28
2022-10-07T14:12:50.520Z,100463.06
2022-10-07T14:15:20.805Z,100461.31
2022-10-07T14:17:48.969Z,100459.03
2022-10-07T14:20:28.597Z,100451.25
2022-10-07T14:23:06.444Z,100444.25
2022-10-07T14:25:48.117Z,100445.28
2022-10-07T14:28:20.506Z,100445.66
2022-10-07T14:31:25.535Z,100438.47
2022-10-07T14:34:32.217Z,100432.59
2022-10-07T14:37:13.689Z,100427.16
2022-10-07T14:39:44.536Z,100429.59
2022-10-07T14:42:14.550Z,100423.56
2022-10-07T14:44:44.079Z,100414.47
2022-10-07T14:47:20.782Z,100413.06
2022-10-07T14:49:52.737Z,100413.75
2022-10-07T14:52:23.519Z,100408.53
2022-10-07T14:54:54.177Z,100405.94
2022-10-07T14:57:20.827Z,100404.13
2022-10-07T14:59:49.754Z,100404.22
2022-10-07T15:02:17.475Z,100402.13
2022-10-07T15:04:45.534Z,100405.13
2022-10-07T15:07:16.021Z,100396.06
2022-10-07T15:09:44.447Z,100390.44
2022-10-07T15:12:11.885Z,100380.44
2022-10-07T15:14:38.448Z,100383.09
2022-10-07T15:17:06.136Z,100381.22
2022-10-07T15:19:33.154Z,100376.94
2022-10-07T15:22:00.141Z,100368.47
2022-10-07T15:24:27.238Z,100375.34
2022-10-07T15:26:54.260Z,100367.84
2022-10-07T15:29:22.449Z,100363.28
2022-10-07T15:31:49.382Z,100371.34
2022-10-07T15:34:16.100Z,100360.81
2022-10-07T15:36:43.277Z,100360.00
2022-10-07T15:39:10.047Z,100350.38
2022-10-07T15:41:41.540Z,100357.97
2022-10-07T15:44:17.489Z,100360.47
2022-10-07T15:46:45.930Z,100353.97
2022-10-07T15:49:12.495Z,100366.00
2022-10-07T15:51:39.465Z,100353.38
2022-10-07T15:54:06.878Z,100359.66
2022-10-07T15:56:33.825Z,100352.50
2022-10-07T15:59:02.172Z,100353.13
2022-10-07T16:01:31.917Z,100348.91
2022-10-07T16:04:00.414Z,100346.75
2022-10-07T16:06:32.662Z,100347.09
2022-10-07T16:09:00.116Z,100349.13
2022-10-07T16:11:28.502Z,100352.91
2022-10-07T16:13:55.176Z,100354.47
2022-10-07T16:16:24.227Z,100357.88
2022-10-07T16:18:52.257Z,100352.34
2022-10-07T16:21:24.247Z,100357.06
2022-10-07T16:23:54.645Z,100351.56
2022-10-07T16:26:22.977Z,100351.69
2022-10-07T16:29:09.262Z,100347.75
2022-10-07T16:31:40.303Z,100346.19
2022-10-07T16:34:07.925Z,100345.53
2022-10-07T16:36:35.982Z,100342.88
2022-10-07T16:39:05.220Z,100343.47
2022-10-07T16:41:32.952Z,100339.59
2022-10-07T16:44:00.168Z,100346.09
2022-10-07T16:46:27.760Z,100336.06
2022-10-07T16:48:54.270Z,100339.59
2022-10-07T16:51:25.859Z,100338.69
2022-10-07T16:54:01.964Z,100336.81
2022-10-07T16:56:33.190Z,100335.41
2022-10-07T16:59:01.957Z,100339.41
2022-10-07T17:01:29.299Z,100339.41
2022-10-07T17:03:57.479Z,100341.28
2022-10-07T17:06:25.052Z,100341.75
2022-10-07T17:08:52.750Z,100342.16
2022-10-07T17:11:30.264Z,100341.50
2022-10-07T17:14:07.359Z,100342.34
2022-10-07T17:16:37.725Z,100340.75
2022-10-07T17:19:06.362Z,100335.31
2022-10-07T17:21:36.639Z,100327.81
2022-10-07T17:24:04.367Z,100330.22
2022-10-07T17:26:31.005Z,100328.00
2022-10-07T17:28:59.660Z,100326.13
2022-10-07T17:31:27.766Z,100325.72
2022-10-07T17:33:54.934Z,100319.34
2022-10-07T17:36:23.331Z,100323.50
2022-10-07T17:38:50.301Z,100329.38
2022-10-07T17:41:26.278Z,100332.94
2022-10-07T17:44:01.882Z,100333.00
2022-10-07T17:46:32.399Z,100331.97
2022-10-07T17:49:00.497Z,100332.72
2022-10-07T17:51:30.051Z,100328.25
2022-10-07T17:54:01.089Z,100333.31
2022-10-07T17:56:29.785Z,100329.28
2022-10-07T17:58:57.094Z,100336.16
2022-10-07T18:01:28.507Z,100330.41
2022-10-07T18:03:57.773Z,100327.09
2022-10-07T18:06:30.282Z,100330.31
2022-10-07T18:09:02.183Z,100331.25
2022-10-07T18:11:49.344Z,100319.00
2022-10-07T18:14:34.139Z,100323.44
2022-10-07T18:17:00.754Z,100313.38
2022-10-07T18:19:27.563Z,100316.78
2022-10-07T18:21:56.262Z,100312.50
2022-10-07T18:24:27.430Z,100318.59
2022-10-07T18:26:55.351Z,100303.41
2022-10-07T18:29:21.941Z,100298.53
2022-10-07T18:31:48.622Z,100298.75
2022-10-07T18:34:15.144Z,100291.34
2022-10-07T18:36:41.606Z,100287.31
2022-10-07T18:39:10.347Z,100279.22
2022-10-07T18:41:36.811Z,100278.91
2022-10-07T18:44:03.805Z,100279.75
2022-10-07T18:46:30.402Z,100271.81
2022-10-07T18:48:57.009Z,100275.22
2022-10-07T18:51:23.616Z,100265.38
2022-10-07T18:53:50.086Z,100262.84
2022-10-07T18:56:19.152Z,100262.34
2022-10-07T18:58:47.699Z,100264.72
2022-10-07T19:01:14.239Z,100254.25
2022-10-07T19:03:41.072Z,100251.88
2022-10-07T19:06:12.426Z,100252.19
2022-10-07T19:08:39.288Z,100254.06
2022-10-07T19:11:07.635Z,100249.19
2022-10-07T19:13:54.099Z,100248.81
2022-10-07T19:16:34.550Z,100242.91
2022-10-07T19:19:06.413Z,100247.63
2022-10-07T19:21:33.396Z,100249.84
2022-10-07T19:24:03.375Z,100250.34
2022-10-07T19:26:42.330Z,100253.56
2022-10-07T19:29:09.614Z,100252.19
2022-10-07T19:31:41.857Z,100255.22
2022-10-07T19:34:11.445Z,100252.69
2022-10-07T19:36:40.595Z,100249.16
2022-10-07T19:39:07.481Z,100248.63
2022-10-07T19:41:34.885Z,100246.25
2022-10-07T19:44:01.999Z,100243.38
2022-10-07T19:46:30.513Z,100239.66
2022-10-07T19:48:58.871Z,100237.28
2022-10-07T19:51:27.513Z,100237.47
2022-10-07T19:53:55.253Z,100226.66
2022-10-07T19:56:25.538Z,100235.22
2022-10-07T19:58:56.890Z,100229.50
2022-10-07T20:01:25.810Z,100229.50
2022-10-07T20:03:57.320Z,100221.56
2022-10-07T20:06:23.970Z,100222.72
2022-10-07T20:08:50.897Z,100216.66
2022-10-07T20:11:17.338Z,100218.69
2022-10-07T20:13:43.988Z,100221.72
2022-10-07T20:16:12.014Z,100226.13
2022-10-07T20:18:40.300Z,100219.53
2022-10-07T20:21:13.274Z,100217.00
2022-10-07T20:23:41.212Z,100211.78
2022-10-07T20:26:09.592Z,100212.28
2022-10-07T20:28:39.492Z,100210.06
2022-10-07T20:31:08.412Z,100211.25
2022-10-07T20:33:44.290Z,100210.22
2022-10-07T20:36:13.255Z,100217.97
2022-10-07T20:38:58.527Z,100206.00
2022-10-07T20:41:44.470Z,100210.69
2022-10-07T20:44:12.770Z,100198.03
2022-10-07T20:46:39.390Z,100197.19
2022-10-07T20:49:25.455Z,100191.81
2022-10-07T20:51:56.863Z,100184.88
2022-10-07T20:54:24.894Z,100184.53
2022-10-07T20:56:52.506Z,100177.09
2022-10-07T20:59:19.833Z,100176.25
2022-10-07T21:01:46.490Z,100176.19
2022-10-07T21:04:14.674Z,100169.41
2022-10-07T21:06:41.635Z,100168.91
2022-10-07T21:09:08.782Z,100168.56
2022-10-07T21:11:35.454Z,100161.81
2022-10-07T21:14:01.974Z,100168.31
2022-10-07T21:16:30.368Z,100161.25
2022-10-07T21:18:57.137Z,100165.28
2022-10-07T21:21:24.903Z,100162.91
2022-10-07T21:23:51.727Z,100158.31
2022-10-07T21:26:18.840Z,100153.78
2022-10-07T21:28:49.240Z,100149.84
2022-10-07T21:31:21.726Z,100147.84
2022-10-07T21:33:51.368Z,100146.81
2022-10-07T21:36:20.869Z,100145.13
2022-10-07T21:38:53.247Z,100137.53
2022-10-07T21:41:25.611Z,100137.69
2022-10-07T21:43:56.153Z,100132.44
2022-10-07T21:46:24.592Z,100132.06
2022-10-07T21:48:52.069Z,100129.06
2022-10-07T21:51:18.540Z,100123.97
2022-10-07T21:53:49.651Z,100132.75
2022-10-07T21:56:16.747Z,100129.53
2022-10-07T21:58:44.495Z,100121.44
2022-10-07T22:01:16.713Z,100122.28
2022-10-07T22:03:44.102Z,100128.00
2022-10-07T22:06:12.674Z,100118.91
2022-10-07T22:08:40.092Z,100126.00
2022-10-07T22:11:08.053Z,100112.31
2022-10-07T22:13:45.709Z,100107.94
2022-10-07T22:16:14.919Z,100106.25
2022-10-07T22:18:47.089Z,100105.56
2022-10-07T22:21:22.099Z,100098.00
2022-10-07T22:23:50.935Z,100098.78
2022-10-07T22:26:18.823Z,100093.03
2022-10-07T22:28:49.675Z,100095.19
2022-10-07T22:31:17.042Z,100081.84
2022-10-07T22:33:44.979Z,100085.38
2022-10-07T22:36:13.070Z,100081.84
2022-10-07T22:38:40.904Z,100073.38
2022-10-07T22:41:12.414Z,100076.19
2022-10-07T22:43:39.734Z,100073.00
2022-10-07T22:46:07.239Z,100077.47
2022-10-07T22:48:34.245Z,100072.63
2022-10-07T22:51:08.781Z,100063.00
2022-10-07T22:53:37.154Z,100071.22
2022-10-07T22:56:08.286Z,100056.34
2022-10-07T22:58:34.781Z,100056.06
2022-10-07T23:01:06.141Z,100049.25
2022-10-07T23:03:32.899Z,100049.56
2022-10-07T23:06:00.043Z,100047.25
2022-10-07T23:08:26.931Z,100048.34
2022-10-07T23:10:57.432Z,100043.88
2022-10-07T23:13:26.892Z,100043.69
2022-10-07T23:15:57.258Z,100041.31
2022-10-07T23:18:23.986Z,100037.75
2022-10-07T23:21:02.654Z,100049.84
2022-10-07T23:23:30.120Z,100038.78
2022-10-07T23:25:56.826Z,100039.25
2022-10-07T23:28:25.753Z,100040.09
2022-10-07T23:30:53.070Z,100042.63
2022-10-07T23:33:20.100Z,100030.16
2022-10-07T23:35:46.623Z,100041.03
2022-10-07T23:38:13.122Z,100034.13
2022-10-07T23:40:40.725Z,100030.91
2022-10-07T23:43:09.268Z,100036.59
2022-10-07T23:45:35.868Z,100038.59
2022-10-07T23:48:02.326Z,100022.59
2022-10-07T23:50:28.827Z,100022.22
2022-10-07T23:52:55.321Z,100024.75
2022-10-07T23:55:21.852Z,100028.97
2022-10-07T23:57:48.404Z,100025.06
